createdAt,value
2022-11-17T09:29:15.543Z,5.80
2022-11-17T09:35:09.589Z,7.55
2022-11-17T09:41:22.383Z,5.85
2022-11-17T09:48:02.373Z,6.60
2022-11-17T09:54:26.723Z,6.95
2022-11-17T10:00:21.161Z,7.18
2022-11-17T10:06:33.846Z,5.68
2022-11-17T10:12:31.373Z,9.68
2022-11-17T10:18:24.403Z,10.10
2022-11-17T10:24:38.348Z,10.43
2022-11-17T10:30:31.222Z,6.05
2022-11-17T10:36:29.980Z,5.43
2022-11-17T10:42:28.020Z,4.13
2022-11-17T10:48:30.624Z,5.07
2022-11-17T10:54:23.642Z,7.03
2022-11-17T11:00:37.601Z,2.53
2022-11-17T11:06:32.685Z,5.65
2022-11-17T11:13:01.390Z,5.35
2022-11-17T11:18:53.954Z,7.25
2022-11-17T11:24:53.942Z,11.60
2022-11-17T11:30:59.581Z,6.05
2022-11-17T11:37:14.243Z,5.55
2022-11-17T11:43:27.589Z,4.80
2022-11-17T11:49:31.584Z,4.60
2022-11-17T11:55:35.129Z,8.90
2022-11-17T12:01:32.649Z,5.57
2022-11-17T12:07:47.824Z,9.55
2022-11-17T12:13:47.286Z,9.55
2022-11-17T12:19:48.696Z,13.43
2022-11-17T12:25:54.117Z,7.03
2022-11-17T12:31:51.111Z,5.95
2022-11-17T12:37:43.642Z,6.28
2022-11-17T12:43:36.723Z,7.63
2022-11-17T12:49:46.311Z,8.50
2022-11-17T12:55:47.520Z,7.40
2022-11-17T13:01:53.446Z,11.93
2022-11-17T13:07:45.725Z,11.98
2022-11-17T13:13:43.965Z,10.10
2022-11-17T13:19:41.847Z,7.80
2022-11-17T13:25:35.203Z,6.90
2022-11-17T13:31:27.800Z,13.17
2022-11-17T13:37:26.681Z,11.45
2022-11-17T13:43:21.890Z,9.05
2022-11-17T13:49:50.379Z,13.43
2022-11-17T13:55:49.261Z,18.00
2022-11-17T14:01:41.781Z,14.73
2022-11-17T14:07:37.079Z,10.90
2022-11-17T14:13:32.450Z,11.95
2022-11-17T14:19:30.263Z,9.50
2022-11-17T14:25:23.903Z,8.15
2022-11-17T14:31:18.276Z,15.60
2022-11-17T14:37:13.265Z,10.10
2022-11-17T14:43:06.811Z,18.33
2022-11-17T14:48:58.740Z,12.13
2022-11-17T14:54:51.043Z,11.48
2022-11-17T15:00:44.106Z,14.70
2022-11-17T15:06:38.148Z,10.55
2022-11-17T15:12:30.935Z,10.60
2022-11-17T15:18:23.182Z,14.35
2022-11-17T15:24:16.258Z,14.73
2022-11-17T15:30:09.667Z,15.13
2022-11-17T15:36:05.893Z,15.30
2022-11-17T15:41:58.300Z,8.55
2022-11-17T15:53:45.443Z,10.38
2022-11-17T15:59:37.768Z,11.20
2022-11-17T16:05:30.385Z,11.77
2022-11-17T16:11:23.651Z,19.83
2022-11-17T16:17:15.791Z,31.73
2022-11-17T16:23:08.064Z,22.65
2022-11-17T16:29:02.622Z,17.63
2022-11-17T16:34:55.407Z,18.13
2022-11-17T16:40:48.991Z,18.60
2022-11-17T16:46:43.651Z,12.65
2022-11-17T16:52:36.182Z,12.70
2022-11-17T16:58:28.113Z,7.03
2022-11-17T17:04:20.365Z,12.35
2022-11-17T17:10:13.301Z,9.98
2022-11-17T17:16:08.812Z,14.43
2022-11-17T17:22:01.836Z,10.57
2022-11-17T17:27:54.064Z,16.23
2022-11-17T17:33:46.584Z,11.18
2022-11-17T17:39:39.221Z,12.17
2022-11-17T17:45:31.362Z,11.43
2022-11-17T17:51:25.284Z,8.10
2022-11-17T17:57:17.456Z,8.68
2022-11-17T18:09:02.423Z,9.10
2022-11-17T18:14:54.832Z,10.70
2022-11-17T18:20:47.432Z,12.50
2022-11-17T18:26:41.246Z,9.27
2022-11-17T18:32:34.670Z,10.82
2022-11-17T18:38:27.112Z,10.45
2022-11-17T18:44:19.905Z,7.70
2022-11-17T18:50:12.375Z,15.97
2022-11-17T18:56:10.821Z,11.13
2022-11-17T19:02:03.463Z,21.30
2022-11-17T19:07:57.532Z,13.60
2022-11-17T19:13:50.403Z,15.80
2022-11-17T19:19:42.512Z,23.63
2022-11-17T19:25:42.082Z,19.10
2022-11-17T19:31:34.946Z,17.27
2022-11-17T19:37:27.492Z,21.77
2022-11-17T19:43:19.742Z,18.35
2022-11-17T19:49:13.072Z,20.55
2022-11-17T19:55:06.484Z,18.85
2022-11-17T20:00:59.478Z,15.70
2022-11-17T20:06:52.307Z,16.48
2022-11-17T20:12:44.872Z,15.38
2022-11-17T20:18:37.771Z,13.30
2022-11-17T20:24:30.750Z,21.92
2022-11-17T20:30:22.943Z,14.43
2022-11-17T20:36:19.791Z,9.98
2022-11-17T20:42:14.533Z,13.88
2022-11-17T20:48:07.251Z,17.17
2022-11-17T20:54:00.422Z,15.45
2022-11-17T20:59:53.284Z,11.65
2022-11-17T21:05:59.163Z,18.38
2022-11-17T21:11:57.798Z,17.23
2022-11-17T21:18:08.631Z,13.80
2022-11-17T21:24:00.590Z,14.10
2022-11-17T21:29:53.099Z,17.65
2022-11-17T21:35:46.182Z,17.00
2022-11-17T21:41:39.232Z,23.67
2022-11-17T21:47:31.719Z,14.80
2022-11-17T21:53:25.144Z,20.83
2022-11-17T21:59:17.936Z,23.37
2022-11-17T22:05:11.272Z,30.13
2022-11-17T22:11:06.958Z,26.33
2022-11-17T22:16:58.874Z,27.00
2022-11-17T22:22:54.334Z,23.50
2022-11-17T22:28:54.360Z,18.83
2022-11-17T22:34:47.011Z,22.77
2022-11-17T22:40:42.572Z,22.35
2022-11-17T22:46:36.244Z,19.35
2022-11-17T22:52:28.739Z,15.52
2022-11-17T22:58:21.532Z,16.95
2022-11-17T23:04:15.118Z,20.23
2022-11-17T23:10:07.317Z,21.20
2022-11-17T23:16:04.591Z,21.85
2022-11-17T23:21:56.791Z,20.17
2022-11-17T23:27:49.363Z,19.47
2022-11-17T23:33:45.061Z,20.40
2022-11-17T23:39:37.329Z,21.52
2022-11-17T23:45:30.272Z,18.50
2022-11-17T23:51:25.530Z,19.75
2022-11-17T23:57:18.551Z,17.77
